createdAt,value
2023-04-17T00:00:52.628Z,99887.75
2023-04-17T00:03:21.431Z,99890.73
2023-04-17T00:05:49.830Z,99889.15
2023-04-17T00:08:19.304Z,99887.23
2023-04-17T00:11:00.213Z,99884.25
2023-04-17T00:13:35.092Z,99882.65
2023-04-17T00:16:03.351Z,99879.84
2023-04-17T00:18:31.972Z,99881.10
2023-04-17T00:21:00.747Z,99885.19
2023-04-17T00:23:28.865Z,99884.67
2023-04-17T00:25:57.050Z,99884.31
2023-04-17T00:28:26.533Z,99884.50
2023-04-17T00:30:54.661Z,99879.91
2023-04-17T00:33:24.674Z,99878.66
2023-04-17T00:35:52.660Z,99880.40
2023-04-17T00:38:21.052Z,99880.76
2023-04-17T00:40:51.698Z,99876.20
2023-04-17T00:43:19.855Z,99871.96
2023-04-17T00:45:48.298Z,99868.24
2023-04-17T00:48:16.958Z,99871.13
2023-04-17T00:50:45.574Z,99869.82
2023-04-17T00:53:14.925Z,99871.80
2023-04-17T00:55:43.941Z,99876.47
2023-04-17T00:58:12.122Z,99872.45
2023-04-17T01:00:40.406Z,99872.64
2023-04-17T01:03:08.868Z,99870.52
2023-04-17T01:05:38.648Z,99872.10
2023-04-17T01:08:06.763Z,99871.94
2023-04-17T01:10:34.926Z,99873.39
2023-04-17T01:13:04.269Z,99874.90
2023-04-17T01:15:32.953Z,99871.11
2023-04-17T01:18:01.204Z,99867.83
2023-04-17T01:20:32.512Z,99866.61
2023-04-17T01:23:01.035Z,99865.77
2023-04-17T01:25:29.570Z,99869.41
2023-04-17T01:27:58.070Z,99874.72
2023-04-17T01:30:28.701Z,99877.91
2023-04-17T01:33:17.106Z,99875.21
2023-04-17T01:35:45.367Z,99876.06
2023-04-17T01:38:13.444Z,99876.45
2023-04-17T01:40:42.966Z,99875.65
2023-04-17T01:43:11.333Z,99876.67
2023-04-17T01:45:39.426Z,99874.45
2023-04-17T01:48:07.566Z,99878.17
2023-04-17T01:50:35.761Z,99876.41
2023-04-17T01:53:03.861Z,99872.09
2023-04-17T01:55:32.078Z,99873.64
2023-04-17T01:58:00.311Z,99866.83
2023-04-17T02:00:28.616Z,99869.27
2023-04-17T02:02:57.163Z,99869.45
2023-04-17T02:05:25.441Z,99867.13
2023-04-17T02:07:53.628Z,99864.66
2023-04-17T02:10:21.736Z,99864.39
2023-04-17T02:12:49.890Z,99865.40
2023-04-17T02:15:18.782Z,99863.88
2023-04-17T02:17:47.197Z,99866.41
2023-04-17T02:20:15.612Z,99862.78
2023-04-17T02:22:43.816Z,99861.77
2023-04-17T02:25:11.956Z,99867.59
2023-04-17T02:27:40.214Z,99869.69
2023-04-17T02:30:09.251Z,99870.33
2023-04-17T02:32:37.484Z,99871.00
2023-04-17T02:35:07.536Z,99876.84
2023-04-17T02:37:37.380Z,99877.03
2023-04-17T02:40:07.407Z,99877.61
2023-04-17T02:42:35.619Z,99877.23
2023-04-17T02:45:04.664Z,99880.98
2023-04-17T02:47:33.841Z,99880.10
2023-04-17T02:50:04.087Z,99884.39
2023-04-17T02:52:36.441Z,99880.71
2023-04-17T02:55:05.839Z,99879.80
2023-04-17T02:57:34.395Z,99876.52
2023-04-17T03:00:05.783Z,99876.05
2023-04-17T03:02:35.092Z,99877.41
2023-04-17T03:05:04.389Z,99879.86
2023-04-17T03:07:33.170Z,99879.62
2023-04-17T03:10:01.328Z,99880.40
2023-04-17T03:12:32.209Z,99884.02
2023-04-17T03:15:01.438Z,99885.91
2023-04-17T03:17:30.583Z,99883.23
2023-04-17T03:19:59.843Z,99888.22
2023-04-17T03:22:27.993Z,99888.55
2023-04-17T03:24:56.141Z,99892.23
2023-04-17T03:27:26.657Z,99898.01
2023-04-17T03:29:56.369Z,99899.45
2023-04-17T03:32:25.620Z,99895.55
2023-04-17T03:34:53.769Z,99900.83
2023-04-17T03:37:22.723Z,99900.09
2023-04-17T03:39:51.004Z,99901.30
2023-04-17T03:42:19.369Z,99901.31
2023-04-17T03:44:47.581Z,99901.37
2023-04-17T03:47:15.785Z,99902.48
2023-04-17T03:49:44.138Z,99898.92
2023-04-17T03:52:13.260Z,99905.97
2023-04-17T03:54:42.688Z,99907.24
2023-04-17T03:57:12.935Z,99909.81
2023-04-17T03:59:41.109Z,99912.72
2023-04-17T04:02:09.380Z,99913.40
2023-04-17T04:04:38.062Z,99914.16
2023-04-17T04:07:10.680Z,99914.33
2023-04-17T04:09:39.091Z,99916.41
2023-04-17T04:12:09.036Z,99922.80
2023-04-17T04:14:42.024Z,99926.38
2023-04-17T04:17:11.168Z,99931.21
2023-04-17T04:19:39.648Z,99930.36
2023-04-17T04:22:08.070Z,99936.70
2023-04-17T04:24:42.792Z,99936.02
2023-04-17T04:27:18.171Z,99931.23
2023-04-17T04:29:49.110Z,99930.64
2023-04-17T04:32:20.717Z,99932.91
2023-04-17T04:34:48.985Z,99933.52
2023-04-17T04:37:18.169Z,99934.39
2023-04-17T04:39:48.000Z,99936.02
2023-04-17T04:42:22.589Z,99936.42
2023-04-17T04:45:05.213Z,99941.73
2023-04-17T04:47:34.008Z,99940.99
2023-04-17T04:50:02.467Z,99939.88
2023-04-17T04:52:32.410Z,99943.28
2023-04-17T04:55:02.771Z,99943.40
2023-04-17T04:57:31.555Z,99942.36
2023-04-17T05:00:02.430Z,99940.60
2023-04-17T05:02:36.207Z,99937.23
2023-04-17T05:05:08.701Z,99940.33
2023-04-17T05:07:38.104Z,99938.69
2023-04-17T05:10:08.510Z,99937.63
2023-04-17T05:12:41.770Z,99937.48
2023-04-17T05:15:11.521Z,99936.96
2023-04-17T05:17:39.610Z,99938.04
2023-04-17T05:20:09.710Z,99939.52
2023-04-17T05:22:45.404Z,99939.54
2023-04-17T05:25:14.162Z,99942.67
2023-04-17T05:27:42.781Z,99949.34
2023-04-17T05:30:13.189Z,99952.68
2023-04-17T05:32:42.106Z,99957.09
2023-04-17T05:35:38.151Z,99957.91
2023-04-17T05:38:08.112Z,99959.67
2023-04-17T05:40:38.086Z,99958.70
2023-04-17T05:43:10.278Z,99958.65
2023-04-17T05:45:38.980Z,99960.97
2023-04-17T05:48:16.262Z,99964.68
2023-04-17T05:50:44.740Z,99963.14
2023-04-17T05:53:13.009Z,99964.72
2023-04-17T05:55:48.387Z,99964.96
2023-04-17T06:01:08.155Z,99969.30
2023-04-17T06:03:37.880Z,99972.13
2023-04-17T06:06:20.112Z,99975.22
2023-04-17T06:08:55.143Z,99972.77
2023-04-17T06:11:24.562Z,99974.48
2023-04-17T06:13:55.209Z,99973.73
2023-04-17T06:16:26.712Z,99972.57
2023-04-17T06:18:55.006Z,99977.63
2023-04-17T06:21:23.137Z,99981.20
2023-04-17T06:23:52.705Z,99982.52
2023-04-17T06:26:21.430Z,99983.31
2023-04-17T06:28:53.130Z,99987.98
2023-04-17T06:31:21.402Z,99985.72
2023-04-17T06:33:51.001Z,99987.75
2023-04-17T06:36:21.039Z,99986.81
2023-04-17T06:38:57.146Z,99992.21
2023-04-17T06:41:25.192Z,99991.46
2023-04-17T06:44:02.372Z,99994.03
2023-04-17T06:46:45.032Z,99994.38
2023-04-17T06:49:14.321Z,99992.29
2023-04-17T06:51:45.973Z,99996.84
2023-04-17T06:54:14.316Z,99998.56
2023-04-17T06:56:42.646Z,99998.18
2023-04-17T06:59:11.221Z,99996.61
2023-04-17T07:01:40.577Z,99998.72
2023-04-17T07:04:10.209Z,100000.20
2023-04-17T07:06:40.102Z,99998.52
2023-04-17T07:09:08.295Z,100004.61
2023-04-17T07:11:37.507Z,100008.30
2023-04-17T07:14:10.960Z,100010.86
2023-04-17T07:16:41.203Z,100013.53
2023-04-17T07:19:09.450Z,100013.02
2023-04-17T07:21:38.146Z,100016.20
2023-04-17T07:24:11.250Z,100013.28
2023-04-17T07:26:40.621Z,100015.66
2023-04-17T07:29:09.425Z,100014.47
2023-04-17T07:31:38.676Z,100007.27
2023-04-17T07:34:06.865Z,100006.39
2023-04-17T07:36:37.422Z,100011.73
2023-04-17T07:39:10.792Z,100014.05
2023-04-17T07:41:41.186Z,100009.52
2023-04-17T07:44:11.387Z,100009.38
2023-04-17T07:46:41.656Z,100011.58
2023-04-17T07:49:12.056Z,100010.88
2023-04-17T07:51:43.224Z,100008.61
2023-04-17T07:54:16.248Z,100009.94
2023-04-17T07:56:49.834Z,100011.02
2023-04-17T07:59:19.146Z,100014.64
2023-04-17T08:01:47.272Z,100012.36
2023-04-17T08:04:17.114Z,100015.44
2023-04-17T08:06:45.580Z,100020.52
2023-04-17T08:09:13.873Z,100018.98
2023-04-17T08:11:56.447Z,100015.00
2023-04-17T08:14:26.197Z,100013.34
2023-04-17T08:16:56.148Z,100013.48
2023-04-17T08:19:25.008Z,100010.50
2023-04-17T08:21:56.630Z,100010.64
2023-04-17T08:24:25.419Z,100009.62
2023-04-17T08:26:58.052Z,100012.24
2023-04-17T08:29:32.996Z,100008.09
2023-04-17T08:32:42.749Z,100008.09
2023-04-17T08:35:11.654Z,100007.80
2023-04-17T08:37:42.550Z,100012.05
2023-04-17T08:40:13.557Z,100006.34
2023-04-17T08:42:42.599Z,100007.30
2023-04-17T08:45:13.380Z,100007.60
2023-04-17T08:47:42.834Z,100008.51
2023-04-17T08:50:16.554Z,100007.25
2023-04-17T08:52:50.380Z,100002.98
2023-04-17T08:55:25.002Z,100006.89
2023-04-17T08:58:06.822Z,100005.52
2023-04-17T09:00:41.409Z,100005.42
2023-04-17T09:03:13.609Z,100003.59
2023-04-17T09:05:46.663Z,100006.95
2023-04-17T09:08:24.330Z,99999.05
2023-04-17T09:10:55.370Z,99998.42
2023-04-17T09:13:25.824Z,99996.99
2023-04-17T09:16:11.128Z,99994.78
2023-04-17T09:18:40.091Z,99999.58
2023-04-17T09:21:08.455Z,99998.38
2023-04-17T09:23:55.538Z,99997.06
2023-04-17T09:26:26.296Z,99998.65
2023-04-17T09:29:04.165Z,99996.31
2023-04-17T09:31:34.746Z,99997.19
2023-04-17T09:34:04.550Z,99998.77
2023-04-17T09:36:34.238Z,100000.06
2023-04-17T09:39:04.423Z,100001.41
2023-04-17T09:41:36.353Z,99998.52
2023-04-17T09:44:07.972Z,99994.56
2023-04-17T09:46:48.137Z,99992.27
2023-04-17T09:49:39.948Z,99993.06
2023-04-17T09:52:08.419Z,99986.25
2023-04-17T09:54:39.401Z,99990.20
2023-04-17T09:57:08.640Z,99988.34
2023-04-17T09:59:41.925Z,99987.17
2023-04-17T10:02:11.788Z,99989.27
2023-04-17T10:04:41.702Z,99987.11
2023-04-17T10:07:10.505Z,99990.45
2023-04-17T10:09:41.977Z,99991.91
2023-04-17T10:12:17.410Z,99994.91
2023-04-17T10:14:48.389Z,99992.21
2023-04-17T10:17:34.613Z,99996.48
2023-04-17T10:20:15.569Z,99994.95
2023-04-17T10:22:49.419Z,100000.02
2023-04-17T10:25:17.938Z,100001.20
2023-04-17T10:27:48.618Z,99996.27
2023-04-17T10:30:17.800Z,99990.63
2023-04-17T10:32:46.788Z,99989.59
2023-04-17T10:35:18.152Z,99989.60
2023-04-17T10:37:50.736Z,99988.38
2023-04-17T10:40:23.158Z,99987.23
2023-04-17T10:43:22.426Z,99990.58
2023-04-17T10:46:01.303Z,99991.08
2023-04-17T10:48:38.083Z,99992.62
2023-04-17T10:51:24.294Z,99996.48
2023-04-17T10:53:56.296Z,100000.30
2023-04-17T10:56:40.565Z,100000.84
2023-04-17T10:59:10.123Z,99996.27
2023-04-17T11:01:55.991Z,99990.82
2023-04-17T11:04:31.497Z,99991.84
2023-04-17T11:07:00.158Z,99989.44
2023-04-17T11:09:29.721Z,99991.73
2023-04-17T11:12:03.503Z,99995.98
2023-04-17T11:14:32.778Z,99994.52
2023-04-17T11:17:01.993Z,99993.46
2023-04-17T11:19:32.228Z,99988.45
2023-04-17T11:22:02.858Z,99988.17
2023-04-17T11:24:32.141Z,99985.02
2023-04-17T11:27:00.914Z,99988.39
2023-04-17T11:29:29.141Z,99981.75
2023-04-17T11:31:57.589Z,99983.73
2023-04-17T11:34:27.565Z,99981.58
2023-04-17T11:36:57.483Z,99983.38
2023-04-17T11:39:28.272Z,99976.08
2023-04-17T11:41:58.122Z,99971.66
2023-04-17T11:44:26.279Z,99968.20
2023-04-17T11:46:58.834Z,99967.92
2023-04-17T11:49:31.500Z,99970.92
2023-04-17T11:52:01.226Z,99971.61
2023-04-17T11:54:37.385Z,99967.11
2023-04-17T11:57:14.509Z,99961.15
2023-04-17T11:59:42.770Z,99961.77
2023-04-17T12:02:12.646Z,99961.70
2023-04-17T12:04:41.213Z,99958.02
2023-04-17T12:07:09.588Z,99951.16
2023-04-17T12:09:38.555Z,99954.02
2023-04-17T12:12:07.438Z,99948.67
2023-04-17T12:14:36.129Z,99946.39
2023-04-17T12:17:04.524Z,99942.04
2023-04-17T12:19:41.610Z,99940.59
2023-04-17T12:22:09.792Z,99938.64
2023-04-17T12:24:38.058Z,99940.95
2023-04-17T12:27:06.348Z,99944.24
2023-04-17T12:29:43.940Z,99944.14
2023-04-17T12:32:13.283Z,99943.39
2023-04-17T12:34:41.590Z,99945.04
2023-04-17T12:37:11.206Z,99943.02
2023-04-17T12:39:39.306Z,99937.42
2023-04-17T12:42:07.576Z,99929.63
2023-04-17T12:44:36.104Z,99931.73
2023-04-17T12:47:04.247Z,99938.54
2023-04-17T12:49:32.832Z,99938.50
2023-04-17T12:52:03.241Z,99943.11
2023-04-17T12:54:33.145Z,99948.11
2023-04-17T12:57:02.351Z,99942.84
2023-04-17T12:59:31.362Z,99943.38
2023-04-17T13:01:59.620Z,99945.36
2023-04-17T13:04:28.460Z,99946.84
2023-04-17T13:06:57.297Z,99947.73
2023-04-17T13:09:25.378Z,99950.98
2023-04-17T13:11:53.515Z,99944.84
2023-04-17T13:14:22.140Z,99945.59
2023-04-17T13:16:51.035Z,99945.23
2023-04-17T13:19:20.082Z,99939.05
2023-04-17T13:21:49.492Z,99932.17
2023-04-17T13:24:17.742Z,99929.17
2023-04-17T13:26:45.874Z,99925.41
2023-04-17T13:29:16.431Z,99926.69
2023-04-17T13:31:46.134Z,99931.36
2023-04-17T13:34:14.300Z,99935.33
2023-04-17T13:36:44.877Z,99933.30
2023-04-17T13:39:14.047Z,99934.14
2023-04-17T13:41:47.495Z,99936.87
2023-04-17T13:44:19.506Z,99930.55
2023-04-17T13:46:47.772Z,99929.63
2023-04-17T13:49:16.196Z,99932.02
2023-04-17T13:51:44.343Z,99937.20
2023-04-17T13:54:12.499Z,99937.92
2023-04-17T13:56:40.660Z,99937.96
2023-04-17T13:59:09.890Z,99937.34
2023-04-17T14:01:38.614Z,99937.78
2023-04-17T14:04:08.219Z,99938.92
2023-04-17T14:06:37.930Z,99939.59
2023-04-17T14:09:06.382Z,99934.19
2023-04-17T14:11:34.426Z,99932.56
2023-04-17T14:14:02.570Z,99935.75
2023-04-17T14:16:30.825Z,99940.90
2023-04-17T14:19:06.437Z,99941.96
2023-04-17T14:21:40.632Z,99935.86
2023-04-17T14:24:09.445Z,99946.30
2023-04-17T14:26:38.363Z,99947.70
2023-04-17T14:29:06.614Z,99949.27
2023-04-17T14:31:34.798Z,99951.70
2023-04-17T14:34:03.021Z,99951.49
2023-04-17T14:36:31.288Z,99951.86
2023-04-17T14:38:59.471Z,99947.97
2023-04-17T14:41:30.072Z,99946.20
2023-04-17T14:43:58.608Z,99945.30
2023-04-17T14:46:26.790Z,99942.89
2023-04-17T14:48:56.393Z,99938.08
2023-04-17T14:51:24.750Z,99941.10
2023-04-17T14:53:53.352Z,99942.00
2023-04-17T14:56:21.959Z,99942.58
2023-04-17T14:58:50.580Z,99939.83
2023-04-17T15:01:20.034Z,99936.37
2023-04-17T15:03:49.046Z,99930.86
2023-04-17T15:06:18.879Z,99929.30
2023-04-17T15:08:47.107Z,99928.29
2023-04-17T15:11:15.996Z,99922.77
2023-04-17T15:13:44.351Z,99918.94
2023-04-17T15:16:12.532Z,99921.17
2023-04-17T15:18:40.633Z,99917.25
2023-04-17T15:21:08.761Z,99918.17
2023-04-17T15:23:37.515Z,99915.80
2023-04-17T15:26:05.745Z,99913.59
2023-04-17T15:28:34.102Z,99914.94
2023-04-17T15:31:02.609Z,99911.48
2023-04-17T15:33:31.174Z,99910.13
2023-04-17T15:36:00.962Z,99908.73
2023-04-17T15:38:29.230Z,99903.40
2023-04-17T15:40:57.977Z,99907.27
2023-04-17T15:43:26.314Z,99902.07
2023-04-17T15:45:56.084Z,99902.88
2023-04-17T15:48:24.674Z,99902.84
2023-04-17T15:50:52.896Z,99900.02
2023-04-17T15:53:21.163Z,99902.86
2023-04-17T15:55:49.341Z,99901.00
2023-04-17T15:58:17.585Z,99899.28
2023-04-17T16:00:45.826Z,99900.02
2023-04-17T16:03:14.915Z,99899.80
2023-04-17T16:05:43.239Z,99896.19
2023-04-17T16:08:11.334Z,99898.68
2023-04-17T16:10:39.945Z,99899.00
2023-04-17T16:13:08.344Z,99903.32
2023-04-17T16:15:36.984Z,99902.33
2023-04-17T16:18:05.581Z,99903.67
2023-04-17T16:20:34.061Z,99901.72
2023-04-17T16:23:02.212Z,99898.73
2023-04-17T16:25:31.171Z,99905.10
2023-04-17T16:27:59.979Z,99908.76
2023-04-17T16:30:28.522Z,99908.84
2023-04-17T16:32:56.821Z,99910.89
2023-04-17T16:35:25.104Z,99912.90
2023-04-17T16:37:55.460Z,99911.34
2023-04-17T16:40:23.648Z,99913.06
2023-04-17T16:42:51.793Z,99912.89
2023-04-17T16:45:21.137Z,99910.31
2023-04-17T16:47:49.416Z,99914.54
2023-04-17T16:50:17.641Z,99910.85
2023-04-17T16:52:51.312Z,99907.50
2023-04-17T16:55:19.660Z,99910.63
2023-04-17T16:57:48.328Z,99909.09
2023-04-17T17:00:16.740Z,99911.77
2023-04-17T17:02:45.069Z,99911.08
2023-04-17T17:05:15.834Z,99913.72
2023-04-17T17:07:44.229Z,99912.05
2023-04-17T17:10:12.635Z,99916.95
2023-04-17T17:12:40.988Z,99916.53
2023-04-17T17:15:09.457Z,99913.05
2023-04-17T17:17:38.335Z,99916.96
2023-04-17T17:20:07.649Z,99918.77
2023-04-17T17:22:36.100Z,99923.11
2023-04-17T17:25:09.228Z,99924.55
2023-04-17T17:27:37.869Z,99924.59
2023-04-17T17:30:07.035Z,99927.64
2023-04-17T17:32:35.920Z,99929.56
2023-04-17T17:35:04.547Z,99928.90
2023-04-17T17:37:32.800Z,99930.19
2023-04-17T17:40:03.260Z,99932.01
2023-04-17T17:42:31.435Z,99934.95
2023-04-17T17:44:59.548Z,99931.67
2023-04-17T17:47:27.670Z,99933.70
2023-04-17T17:49:55.941Z,99932.66
2023-04-17T17:52:24.585Z,99933.98
2023-04-17T17:54:55.295Z,99934.04
2023-04-17T17:57:23.550Z,99936.48
2023-04-17T17:59:51.752Z,99933.15
2023-04-17T18:02:20.602Z,99936.53
2023-04-17T18:04:49.209Z,99940.66
2023-04-17T18:07:17.662Z,99941.30
2023-04-17T18:09:48.885Z,99942.80
2023-04-17T18:12:18.535Z,99942.80
2023-04-17T18:14:46.642Z,99944.59
2023-04-17T18:17:14.744Z,99944.30
2023-04-17T18:19:43.469Z,99942.44
2023-04-17T18:22:11.744Z,99940.38
2023-04-17T18:24:40.786Z,99937.25
2023-04-17T18:27:08.986Z,99935.13
2023-04-17T18:29:37.051Z,99929.38
2023-04-17T18:32:05.228Z,99928.95
2023-04-17T18:34:33.375Z,99932.11
2023-04-17T18:37:01.612Z,99928.11
2023-04-17T18:39:30.987Z,99930.13
2023-04-17T18:41:59.845Z,99931.66
2023-04-17T18:44:29.132Z,99933.04
2023-04-17T18:46:58.071Z,99932.73
2023-04-17T18:49:27.657Z,99930.70
2023-04-17T18:51:55.804Z,99929.74
2023-04-17T18:54:25.950Z,99923.64
2023-04-17T18:56:54.297Z,99921.67
2023-04-17T18:59:22.460Z,99920.79
2023-04-17T19:01:50.750Z,99920.79
2023-04-17T19:04:19.396Z,99915.73
2023-04-17T19:06:48.222Z,99915.15
2023-04-17T19:09:16.236Z,99913.96
2023-04-17T19:11:44.449Z,99915.23
2023-04-17T19:14:12.881Z,99911.23
2023-04-17T19:16:41.310Z,99910.65
2023-04-17T19:19:11.367Z,99913.60
2023-04-17T19:21:39.749Z,99910.67
2023-04-17T19:24:08.652Z,99912.62
2023-04-17T19:26:37.330Z,99910.00
2023-04-17T19:29:05.542Z,99909.96
2023-04-17T19:31:34.143Z,99908.69
2023-04-17T19:34:02.309Z,99906.44
2023-04-17T19:36:30.521Z,99906.92
2023-04-17T19:39:00.039Z,99899.73
2023-04-17T19:41:28.301Z,99901.20
2023-04-17T19:43:56.389Z,99895.60
2023-04-17T19:46:25.594Z,99898.05
2023-04-17T19:48:53.717Z,99900.67
2023-04-17T19:51:23.891Z,99898.85
2023-04-17T19:53:53.594Z,99898.89
2023-04-17T19:56:21.783Z,99898.17
2023-04-17T19:58:49.943Z,99898.02
2023-04-17T20:01:18.088Z,99896.09
2023-04-17T20:03:46.592Z,99897.11
2023-04-17T20:06:14.832Z,99889.21
2023-04-17T20:08:42.937Z,99887.08
2023-04-17T20:11:12.375Z,99886.60
2023-04-17T20:13:41.425Z,99884.39
2023-04-17T20:16:09.599Z,99888.27
2023-04-17T20:18:38.148Z,99882.80
2023-04-17T20:21:06.531Z,99876.70
2023-04-17T20:23:34.897Z,99874.59
2023-04-17T20:26:05.427Z,99872.39
2023-04-17T20:28:34.203Z,99870.45
2023-04-17T20:31:03.812Z,99867.11
2023-04-17T20:33:32.035Z,99864.52
2023-04-17T20:36:00.230Z,99863.07
2023-04-17T20:38:28.601Z,99862.42
2023-04-17T20:40:56.701Z,99859.92
2023-04-17T20:43:24.938Z,99855.00
2023-04-17T20:45:53.120Z,99852.69
2023-04-17T20:48:21.555Z,99856.67
2023-04-17T20:50:49.914Z,99852.39
2023-04-17T20:53:18.326Z,99849.02
2023-04-17T20:55:47.178Z,99848.19
2023-04-17T20:58:15.613Z,99848.62
2023-04-17T21:00:54.477Z,99846.27
2023-04-17T21:03:31.840Z,99842.34
2023-04-17T21:06:00.519Z,99843.04
2023-04-17T21:08:29.381Z,99840.41
2023-04-17T21:10:57.570Z,99837.02
2023-04-17T21:13:26.085Z,99840.31
2023-04-17T21:15:54.232Z,99836.83
2023-04-17T21:18:22.358Z,99834.14
2023-04-17T21:20:51.094Z,99828.35
2023-04-17T21:23:19.108Z,99831.73
2023-04-17T21:25:47.533Z,99827.08
2023-04-17T21:28:16.266Z,99824.98
2023-04-17T21:30:44.431Z,99825.52
2023-04-17T21:33:12.878Z,99827.73
2023-04-17T21:35:40.945Z,99821.98
2023-04-17T21:38:09.363Z,99820.98
2023-04-17T21:40:37.658Z,99815.20
2023-04-17T21:43:06.312Z,99815.70
2023-04-17T21:45:35.302Z,99813.86
2023-04-17T21:48:04.259Z,99813.73
2023-04-17T21:50:33.048Z,99813.77
2023-04-17T21:53:02.369Z,99810.20
2023-04-17T21:55:30.534Z,99814.70
2023-04-17T21:57:59.509Z,99813.90
2023-04-17T22:00:27.670Z,99807.05
2023-04-17T22:02:56.481Z,99807.11
2023-04-17T22:05:24.865Z,99807.30
2023-04-17T22:07:55.300Z,99807.27
2023-04-17T22:10:24.333Z,99806.69
2023-04-17T22:12:53.909Z,99805.52
2023-04-17T22:15:23.313Z,99799.73
2023-04-17T22:17:51.570Z,99802.35
2023-04-17T22:20:20.112Z,99800.70
2023-04-17T22:22:48.243Z,99800.02
2023-04-17T22:25:17.186Z,99797.95
2023-04-17T22:27:46.175Z,99793.40
2023-04-17T22:30:14.281Z,99792.95
2023-04-17T22:32:42.649Z,99795.02
2023-04-17T22:35:11.875Z,99791.17
2023-04-17T22:37:40.455Z,99790.05
2023-04-17T22:40:09.030Z,99786.17
2023-04-17T22:42:37.980Z,99784.11
2023-04-17T22:45:06.489Z,99784.84
2023-04-17T22:47:35.308Z,99781.61
2023-04-17T22:50:04.219Z,99781.97
2023-04-17T22:52:33.117Z,99777.46
2023-04-17T22:55:01.751Z,99776.06
2023-04-17T22:57:30.187Z,99773.38
2023-04-17T22:59:58.272Z,99771.20
2023-04-17T23:02:26.527Z,99767.17
2023-04-17T23:04:54.810Z,99764.01
2023-04-17T23:07:23.120Z,99761.38
2023-04-17T23:09:51.296Z,99763.36
2023-04-17T23:12:19.746Z,99757.98
2023-04-17T23:14:48.558Z,99756.09
2023-04-17T23:17:16.637Z,99754.70
2023-04-17T23:19:44.774Z,99759.49
2023-04-17T23:22:12.964Z,99755.55
2023-04-17T23:24:41.261Z,99757.57
2023-04-17T23:27:09.386Z,99757.60
2023-04-17T23:29:37.560Z,99754.54
2023-04-17T23:32:07.335Z,99750.79
2023-04-17T23:34:35.787Z,99753.73
2023-04-17T23:37:03.932Z,99757.16
2023-04-17T23:39:32.066Z,99756.60
2023-04-17T23:42:05.830Z,99759.12
2023-04-17T23:44:37.097Z,99757.81
2023-04-17T23:47:05.398Z,99755.83
2023-04-17T23:49:33.992Z,99754.27
2023-04-17T23:52:02.446Z,99750.50
2023-04-17T23:54:31.017Z,99747.46
2023-04-17T23:56:59.241Z,99747.70
2023-04-17T23:59:27.416Z,99743.83
